sensor_id;sensor_type;location;lat;lon;timestamp;P1;durP1;ratioP1;P2;durP2;ratioP2
18780;SDS011;9519;51.890;8.970;2022-12-07T00:03:12;33.47;;;20.73;;
18780;SDS011;9519;51.890;8.970;2022-12-07T00:08:14;28.67;;;18.90;;
18780;SDS011;9519;51.890;8.970;2022-12-07T00:13:16;29.63;;;19.47;;
18780;SDS011;9519;51.890;8.970;2022-12-07T00:18:19;31.43;;;20.80;;
18780;SDS011;9519;51.890;8.970;2022-12-07T00:23:21;56.70;;;28.23;;
18780;SDS011;9519;51.890;8.970;2022-12-07T00:28:23;48.47;;;27.97;;
18780;SDS011;9519;51.890;8.970;2022-12-07T00:33:27;73.13;;;30.70;;
18780;SDS011;9519;51.890;8.970;2022-12-07T00:38:30;95.10;;;33.50;;
18780;SDS011;9519;51.890;8.970;2022-12-07T00:43:34;89.00;;;34.33;;
18780;SDS011;9519;51.890;8.970;2022-12-07T00:48:37;235.10;;;43.67;;
18780;SDS011;9519;51.890;8.970;2022-12-07T00:53:41;93.37;;;36.10;;
18780;SDS011;9519;51.890;8.970;2022-12-07T00:58:43;98.10;;;37.83;;
18780;SDS011;9519;51.890;8.970;2022-12-07T01:03:46;70.27;;;36.47;;
18780;SDS011;9519;51.890;8.970;2022-12-07T01:08:49;79.93;;;37.40;;
18780;SDS011;9519;51.890;8.970;2022-12-07T01:13:52;112.67;;;41.93;;
18780;SDS011;9519;51.890;8.970;2022-12-07T01:18:58;150.73;;;48.33;;
18780;SDS011;9519;51.890;8.970;2022-12-07T01:24:01;102.50;;;39.73;;
18780;SDS011;9519;51.890;8.970;2022-12-07T01:29:05;104.70;;;43.47;;
18780;SDS011;9519;51.890;8.970;2022-12-07T01:34:08;89.17;;;40.57;;
18780;SDS011;9519;51.890;8.970;2022-12-07T01:39:11;72.60;;;36.97;;
18780;SDS011;9519;51.890;8.970;2022-12-07T01:44:15;67.67;;;35.20;;
18780;SDS011;9519;51.890;8.970;2022-12-07T01:49:26;69.37;;;33.40;;
18780;SDS011;9519;51.890;8.970;2022-12-07T01:54:33;46.73;;;28.23;;
18780;SDS011;9519;51.890;8.970;2022-12-07T01:59:37;52.17;;;28.43;;
18780;SDS011;9519;51.890;8.970;2022-12-07T02:04:41;46.33;;;26.83;;
18780;SDS011;9519;51.890;8.970;2022-12-07T02:09:43;46.77;;;26.80;;
18780;SDS011;9519;51.890;8.970;2022-12-07T02:14:45;41.53;;;25.57;;
18780;SDS011;9519;51.890;8.970;2022-12-07T02:19:58;46.07;;;27.00;;
18780;SDS011;9519;51.890;8.970;2022-12-07T02:25:16;48.63;;;28.27;;
18780;SDS011;9519;51.890;8.970;2022-12-07T02:30:30;47.47;;;28.53;;
18780;SDS011;9519;51.890;8.970;2022-12-07T02:35:38;45.03;;;26.17;;
18780;SDS011;9519;51.890;8.970;2022-12-07T02:40:46;46.50;;;25.43;;
18780;SDS011;9519;51.890;8.970;2022-12-07T02:45:57;39.17;;;24.50;;
18780;SDS011;9519;51.890;8.970;2022-12-07T02:51:05;36.63;;;22.67;;
18780;SDS011;9519;51.890;8.970;2022-12-07T02:56:09;33.53;;;20.37;;
18780;SDS011;9519;51.890;8.970;2022-12-07T03:01:32;29.10;;;19.30;;
18780;SDS011;9519;51.890;8.970;2022-12-07T03:06:49;34.43;;;18.77;;
18780;SDS011;9519;51.890;8.970;2022-12-07T03:11:59;25.13;;;16.63;;
18780;SDS011;9519;51.890;8.970;2022-12-07T03:17:16;25.07;;;16.97;;
18780;SDS011;9519;51.890;8.970;2022-12-07T03:22:22;31.63;;;16.50;;
18780;SDS011;9519;51.890;8.970;2022-12-07T03:27:30;25.63;;;15.37;;
18780;SDS011;9519;51.890;8.970;2022-12-07T03:32:39;26.03;;;15.87;;
18780;SDS011;9519;51.890;8.970;2022-12-07T03:37:47;22.13;;;13.37;;
18780;SDS011;9519;51.890;8.970;2022-12-07T03:42:54;23.00;;;13.10;;
18780;SDS011;9519;51.890;8.970;2022-12-07T03:48:02;20.07;;;10.57;;
18780;SDS011;9519;51.890;8.970;2022-12-07T03:53:11;19.93;;;11.47;;
18780;SDS011;9519;51.890;8.970;2022-12-07T03:58:21;16.97;;;11.07;;
18780;SDS011;9519;51.890;8.970;2022-12-07T04:03:26;21.57;;;12.20;;
18780;SDS011;9519;51.890;8.970;2022-12-07T04:08:28;21.50;;;11.33;;
18780;SDS011;9519;51.890;8.970;2022-12-07T04:13:30;21.60;;;10.70;;
18780;SDS011;9519;51.890;8.970;2022-12-07T04:18:54;17.30;;;10.73;;
18780;SDS011;9519;51.890;8.970;2022-12-07T04:23:56;20.60;;;11.27;;
18780;SDS011;9519;51.890;8.970;2022-12-07T04:28:58;19.60;;;10.33;;
18780;SDS011;9519;51.890;8.970;2022-12-07T04:34:02;18.13;;;10.03;;
18780;SDS011;9519;51.890;8.970;2022-12-07T04:39:06;16.73;;;8.87;;
18780;SDS011;9519;51.890;8.970;2022-12-07T04:44:09;18.43;;;10.90;;
18780;SDS011;9519;51.890;8.970;2022-12-07T04:49:16;20.63;;;9.60;;
18780;SDS011;9519;51.890;8.970;2022-12-07T04:54:19;16.27;;;9.07;;
18780;SDS011;9519;51.890;8.970;2022-12-07T04:59:22;18.67;;;9.00;;
18780;SDS011;9519;51.890;8.970;2022-12-07T05:04:25;23.10;;;8.77;;
18780;SDS011;9519;51.890;8.970;2022-12-07T05:09:27;17.27;;;9.00;;
18780;SDS011;9519;51.890;8.970;2022-12-07T05:14:29;21.03;;;9.50;;
18780;SDS011;9519;51.890;8.970;2022-12-07T05:19:33;23.07;;;9.77;;
18780;SDS011;9519;51.890;8.970;2022-12-07T05:24:35;17.40;;;9.60;;
18780;SDS011;9519;51.890;8.970;2022-12-07T05:29:38;11.97;;;7.80;;
18780;SDS011;9519;51.890;8.970;2022-12-07T05:34:41;15.43;;;8.60;;
18780;SDS011;9519;51.890;8.970;2022-12-07T05:39:43;14.00;;;8.40;;
18780;SDS011;9519;51.890;8.970;2022-12-07T05:44:46;13.03;;;7.73;;
18780;SDS011;9519;51.890;8.970;2022-12-07T05:49:49;15.60;;;7.47;;
18780;SDS011;9519;51.890;8.970;2022-12-07T05:54:51;14.17;;;7.73;;
18780;SDS011;9519;51.890;8.970;2022-12-07T05:59:54;17.80;;;8.67;;
18780;SDS011;9519;51.890;8.970;2022-12-07T06:04:57;13.97;;;8.00;;
18780;SDS011;9519;51.890;8.970;2022-12-07T06:09:59;18.87;;;8.60;;
18780;SDS011;9519;51.890;8.970;2022-12-07T06:15:01;19.23;;;8.23;;
18780;SDS011;9519;51.890;8.970;2022-12-07T06:20:06;21.30;;;8.33;;
18780;SDS011;9519;51.890;8.970;2022-12-07T06:25:09;17.73;;;8.13;;
18780;SDS011;9519;51.890;8.970;2022-12-07T06:30:11;18.00;;;8.60;;
18780;SDS011;9519;51.890;8.970;2022-12-07T06:35:15;13.83;;;8.30;;
18780;SDS011;9519;51.890;8.970;2022-12-07T06:40:17;13.70;;;7.73;;
18780;SDS011;9519;51.890;8.970;2022-12-07T06:45:19;17.97;;;8.27;;
18780;SDS011;9519;51.890;8.970;2022-12-07T06:50:23;14.70;;;7.70;;
18780;SDS011;9519;51.890;8.970;2022-12-07T06:55:25;13.97;;;8.63;;
18780;SDS011;9519;51.890;8.970;2022-12-07T07:00:27;16.60;;;8.40;;
18780;SDS011;9519;51.890;8.970;2022-12-07T07:05:31;15.00;;;8.43;;
18780;SDS011;9519;51.890;8.970;2022-12-07T07:10:33;25.43;;;14.17;;
18780;SDS011;9519;51.890;8.970;2022-12-07T07:15:37;15.40;;;8.70;;
18780;SDS011;9519;51.890;8.970;2022-12-07T07:20:41;15.03;;;8.37;;
18780;SDS011;9519;51.890;8.970;2022-12-07T07:25:43;17.27;;;8.30;;
18780;SDS011;9519;51.890;8.970;2022-12-07T07:30:46;16.03;;;8.90;;
18780;SDS011;9519;51.890;8.970;2022-12-07T07:35:49;19.43;;;10.73;;
18780;SDS011;9519;51.890;8.970;2022-12-07T07:40:51;18.57;;;11.60;;
18780;SDS011;9519;51.890;8.970;2022-12-07T07:45:53;17.97;;;10.13;;
18780;SDS011;9519;51.890;8.970;2022-12-07T07:50:56;17.40;;;9.57;;
18780;SDS011;9519;51.890;8.970;2022-12-07T07:55:58;14.50;;;9.30;;
18780;SDS011;9519;51.890;8.970;2022-12-07T08:01:03;17.43;;;9.43;;
18780;SDS011;9519;51.890;8.970;2022-12-07T08:06:07;18.60;;;8.53;;
18780;SDS011;9519;51.890;8.970;2022-12-07T08:11:09;17.23;;;7.23;;
18780;SDS011;9519;51.890;8.970;2022-12-07T08:16:12;19.07;;;8.20;;
18780;SDS011;9519;51.890;8.970;2022-12-07T08:21:16;12.80;;;7.43;;
18780;SDS011;9519;51.890;8.970;2022-12-07T08:26:18;13.87;;;7.87;;
18780;SDS011;9519;51.890;8.970;2022-12-07T08:31:21;11.30;;;7.57;;
18780;SDS011;9519;51.890;8.970;2022-12-07T08:36:24;19.10;;;7.87;;
18780;SDS011;9519;51.890;8.970;2022-12-07T08:41:27;13.60;;;8.33;;
18780;SDS011;9519;51.890;8.970;2022-12-07T08:46:30;16.43;;;7.97;;
18780;SDS011;9519;51.890;8.970;2022-12-07T08:51:39;12.13;;;7.90;;
18780;SDS011;9519;51.890;8.970;2022-12-07T08:56:42;15.67;;;8.30;;
18780;SDS011;9519;51.890;8.970;2022-12-07T09:01:45;15.27;;;9.37;;
18780;SDS011;9519;51.890;8.970;2022-12-07T09:06:49;14.63;;;8.00;;
18780;SDS011;9519;51.890;8.970;2022-12-07T09:11:51;19.63;;;8.60;;
18780;SDS011;9519;51.890;8.970;2022-12-07T09:16:53;14.43;;;8.10;;
18780;SDS011;9519;51.890;8.970;2022-12-07T09:21:57;17.10;;;8.23;;
18780;SDS011;9519;51.890;8.970;2022-12-07T09:27:01;17.20;;;7.83;;
18780;SDS011;9519;51.890;8.970;2022-12-07T09:32:03;25.13;;;9.83;;
18780;SDS011;9519;51.890;8.970;2022-12-07T09:37:07;34.90;;;12.37;;
18780;SDS011;9519;51.890;8.970;2022-12-07T09:42:11;19.37;;;10.20;;
18780;SDS011;9519;51.890;8.970;2022-12-07T09:47:29;16.60;;;8.37;;
18780;SDS011;9519;51.890;8.970;2022-12-07T09:52:35;13.00;;;7.37;;
18780;SDS011;9519;51.890;8.970;2022-12-07T09:57:37;16.23;;;7.30;;
18780;SDS011;9519;51.890;8.970;2022-12-07T10:02:40;13.60;;;6.50;;
18780;SDS011;9519;51.890;8.970;2022-12-07T10:07:47;16.77;;;7.10;;
18780;SDS011;9519;51.890;8.970;2022-12-07T10:12:53;14.13;;;5.30;;
18780;SDS011;9519;51.890;8.970;2022-12-07T10:17:58;11.33;;;6.17;;
18780;SDS011;9519;51.890;8.970;2022-12-07T10:23:03;12.00;;;6.27;;
18780;SDS011;9519;51.890;8.970;2022-12-07T10:28:14;12.50;;;6.10;;
18780;SDS011;9519;51.890;8.970;2022-12-07T10:33:28;13.70;;;5.50;;
18780;SDS011;9519;51.890;8.970;2022-12-07T10:38:37;14.70;;;5.90;;
18780;SDS011;9519;51.890;8.970;2022-12-07T10:43:49;11.10;;;6.37;;
18780;SDS011;9519;51.890;8.970;2022-12-07T10:48:55;11.57;;;5.23;;
18780;SDS011;9519;51.890;8.970;2022-12-07T10:54:14;10.00;;;4.80;;
18780;SDS011;9519;51.890;8.970;2022-12-07T10:59:39;9.97;;;5.07;;
18780;SDS011;9519;51.890;8.970;2022-12-07T11:04:59;16.40;;;5.50;;
18780;SDS011;9519;51.890;8.970;2022-12-07T11:10:17;16.50;;;5.47;;
18780;SDS011;9519;51.890;8.970;2022-12-07T11:15:28;14.07;;;6.07;;
18780;SDS011;9519;51.890;8.970;2022-12-07T11:20:44;13.83;;;5.43;;
18780;SDS011;9519;51.890;8.970;2022-12-07T11:25:58;13.93;;;5.20;;
18780;SDS011;9519;51.890;8.970;2022-12-07T11:31:12;16.67;;;5.00;;
18780;SDS011;9519;51.890;8.970;2022-12-07T11:36:29;14.90;;;5.67;;
18780;SDS011;9519;51.890;8.970;2022-12-07T11:41:41;13.67;;;6.00;;
18780;SDS011;9519;51.890;8.970;2022-12-07T11:46:47;10.43;;;5.17;;
18780;SDS011;9519;51.890;8.970;2022-12-07T11:51:56;7.90;;;5.00;;
18780;SDS011;9519;51.890;8.970;2022-12-07T11:57:07;12.10;;;5.63;;
18780;SDS011;9519;51.890;8.970;2022-12-07T12:02:20;11.17;;;4.77;;
18780;SDS011;9519;51.890;8.970;2022-12-07T12:07:28;8.00;;;4.40;;
18780;SDS011;9519;51.890;8.970;2022-12-07T12:12:43;8.83;;;4.60;;
18780;SDS011;9519;51.890;8.970;2022-12-07T12:18:14;10.13;;;4.70;;
18780;SDS011;9519;51.890;8.970;2022-12-07T12:23:39;16.43;;;4.43;;
18780;SDS011;9519;51.890;8.970;2022-12-07T12:28:51;7.93;;;3.63;;
18780;SDS011;9519;51.890;8.970;2022-12-07T12:33:59;14.53;;;3.93;;
18780;SDS011;9519;51.890;8.970;2022-12-07T12:39:09;10.33;;;3.93;;
18780;SDS011;9519;51.890;8.970;2022-12-07T12:50:19;14.03;;;5.53;;
18780;SDS011;9519;51.890;8.970;2022-12-07T13:06:48;9.97;;;3.43;;
18780;SDS011;9519;51.890;8.970;2022-12-07T13:11:55;12.60;;;2.90;;
18780;SDS011;9519;51.890;8.970;2022-12-07T13:17:04;11.00;;;3.37;;
18780;SDS011;9519;51.890;8.970;2022-12-07T13:27:43;9.73;;;5.37;;
18780;SDS011;9519;51.890;8.970;2022-12-07T13:32:58;12.57;;;5.50;;
18780;SDS011;9519;51.890;8.970;2022-12-07T13:38:01;12.07;;;4.57;;
18780;SDS011;9519;51.890;8.970;2022-12-07T13:43:12;13.93;;;7.23;;
18780;SDS011;9519;51.890;8.970;2022-12-07T13:48:21;24.20;;;20.53;;
18780;SDS011;9519;51.890;8.970;2022-12-07T13:53:32;12.27;;;4.90;;
18780;SDS011;9519;51.890;8.970;2022-12-07T13:58:34;18.27;;;5.20;;
18780;SDS011;9519;51.890;8.970;2022-12-07T14:03:37;16.80;;;6.43;;
18780;SDS011;9519;51.890;8.970;2022-12-07T14:08:40;11.00;;;5.10;;
18780;SDS011;9519;51.890;8.970;2022-12-07T14:13:51;12.20;;;4.90;;
18780;SDS011;9519;51.890;8.970;2022-12-07T14:19:02;11.10;;;5.17;;
18780;SDS011;9519;51.890;8.970;2022-12-07T14:24:15;18.20;;;5.23;;
18780;SDS011;9519;51.890;8.970;2022-12-07T14:29:20;14.80;;;5.27;;
18780;SDS011;9519;51.890;8.970;2022-12-07T14:34:35;11.70;;;5.93;;
18780;SDS011;9519;51.890;8.970;2022-12-07T14:39:37;10.43;;;4.87;;
18780;SDS011;9519;51.890;8.970;2022-12-07T14:44:39;13.43;;;4.40;;
18780;SDS011;9519;51.890;8.970;2022-12-07T14:49:42;19.97;;;9.90;;
18780;SDS011;9519;51.890;8.970;2022-12-07T14:54:44;21.83;;;8.30;;
18780;SDS011;9519;51.890;8.970;2022-12-07T14:59:46;13.43;;;4.70;;
18780;SDS011;9519;51.890;8.970;2022-12-07T15:04:50;14.77;;;5.47;;
18780;SDS011;9519;51.890;8.970;2022-12-07T15:09:52;14.60;;;4.83;;
18780;SDS011;9519;51.890;8.970;2022-12-07T15:14:55;12.20;;;4.77;;
18780;SDS011;9519;51.890;8.970;2022-12-07T15:19:58;15.40;;;4.83;;
18780;SDS011;9519;51.890;8.970;2022-12-07T15:25:00;13.67;;;5.20;;
18780;SDS011;9519;51.890;8.970;2022-12-07T15:30:04;11.87;;;5.17;;
18780;SDS011;9519;51.890;8.970;2022-12-07T15:35:11;13.93;;;5.17;;
18780;SDS011;9519;51.890;8.970;2022-12-07T15:40:13;22.73;;;9.27;;
18780;SDS011;9519;51.890;8.970;2022-12-07T15:45:16;18.10;;;6.47;;
18780;SDS011;9519;51.890;8.970;2022-12-07T15:50:19;15.77;;;5.67;;
18780;SDS011;9519;51.890;8.970;2022-12-07T15:55:22;14.70;;;5.70;;
18780;SDS011;9519;51.890;8.970;2022-12-07T16:00:25;20.33;;;8.90;;
18780;SDS011;9519;51.890;8.970;2022-12-07T16:05:28;16.17;;;7.30;;
18780;SDS011;9519;51.890;8.970;2022-12-07T16:10:30;20.40;;;7.93;;
18780;SDS011;9519;51.890;8.970;2022-12-07T16:15:33;21.20;;;7.50;;
18780;SDS011;9519;51.890;8.970;2022-12-07T16:20:40;15.00;;;8.03;;
18780;SDS011;9519;51.890;8.970;2022-12-07T16:25:43;22.33;;;8.73;;
18780;SDS011;9519;51.890;8.970;2022-12-07T16:30:45;18.27;;;8.23;;
18780;SDS011;9519;51.890;8.970;2022-12-07T16:35:48;13.27;;;7.00;;
18780;SDS011;9519;51.890;8.970;2022-12-07T16:40:50;19.20;;;7.77;;
18780;SDS011;9519;51.890;8.970;2022-12-07T16:45:52;16.07;;;7.33;;
18780;SDS011;9519;51.890;8.970;2022-12-07T16:50:56;10.60;;;7.10;;
18780;SDS011;9519;51.890;8.970;2022-12-07T16:55:59;18.10;;;8.17;;
18780;SDS011;9519;51.890;8.970;2022-12-07T17:01:08;15.40;;;7.60;;
18780;SDS011;9519;51.890;8.970;2022-12-07T17:06:14;10.40;;;3.93;;
18780;SDS011;9519;51.890;8.970;2022-12-07T17:11:19;5.67;;;1.80;;
18780;SDS011;9519;51.890;8.970;2022-12-07T17:16:23;4.43;;;2.00;;
18780;SDS011;9519;51.890;8.970;2022-12-07T17:21:26;3.43;;;1.40;;
18780;SDS011;9519;51.890;8.970;2022-12-07T17:26:29;5.40;;;1.90;;
18780;SDS011;9519;51.890;8.970;2022-12-07T17:31:32;6.77;;;2.30;;
18780;SDS011;9519;51.890;8.970;2022-12-07T17:36:35;5.00;;;2.77;;
18780;SDS011;9519;51.890;8.970;2022-12-07T17:41:37;8.80;;;4.40;;
18780;SDS011;9519;51.890;8.970;2022-12-07T17:46:57;13.50;;;8.40;;
18780;SDS011;9519;51.890;8.970;2022-12-07T17:52:03;20.93;;;10.13;;
18780;SDS011;9519;51.890;8.970;2022-12-07T17:57:23;18.83;;;13.27;;
18780;SDS011;9519;51.890;8.970;2022-12-07T18:02:25;38.73;;;21.23;;
18780;SDS011;9519;51.890;8.970;2022-12-07T18:07:28;40.63;;;24.00;;
18780;SDS011;9519;51.890;8.970;2022-12-07T18:12:30;31.37;;;20.90;;
18780;SDS011;9519;51.890;8.970;2022-12-07T18:17:33;32.63;;;20.80;;
18780;SDS011;9519;51.890;8.970;2022-12-07T18:22:36;31.67;;;21.73;;
18780;SDS011;9519;51.890;8.970;2022-12-07T18:27:39;42.23;;;24.20;;
18780;SDS011;9519;51.890;8.970;2022-12-07T18:32:41;40.80;;;27.53;;
18780;SDS011;9519;51.890;8.970;2022-12-07T18:37:44;55.70;;;39.63;;
18780;SDS011;9519;51.890;8.970;2022-12-07T18:42:46;45.70;;;29.93;;
18780;SDS011;9519;51.890;8.970;2022-12-07T18:47:48;32.67;;;25.00;;
18780;SDS011;9519;51.890;8.970;2022-12-07T18:52:51;73.13;;;59.03;;
18780;SDS011;9519;51.890;8.970;2022-12-07T18:57:57;51.37;;;40.07;;
18780;SDS011;9519;51.890;8.970;2022-12-07T19:02:59;34.20;;;21.83;;
18780;SDS011;9519;51.890;8.970;2022-12-07T19:08:03;39.23;;;27.23;;
18780;SDS011;9519;51.890;8.970;2022-12-07T19:13:06;27.33;;;21.83;;
18780;SDS011;9519;51.890;8.970;2022-12-07T19:18:08;28.70;;;18.87;;
18780;SDS011;9519;51.890;8.970;2022-12-07T19:23:11;32.93;;;23.03;;
18780;SDS011;9519;51.890;8.970;2022-12-07T19:28:13;27.73;;;20.17;;
18780;SDS011;9519;51.890;8.970;2022-12-07T19:33:15;25.70;;;17.53;;
18780;SDS011;9519;51.890;8.970;2022-12-07T19:38:19;22.60;;;15.30;;
18780;SDS011;9519;51.890;8.970;2022-12-07T19:43:21;23.33;;;15.83;;
18780;SDS011;9519;51.890;8.970;2022-12-07T19:48:23;24.73;;;16.57;;
18780;SDS011;9519;51.890;8.970;2022-12-07T19:53:27;27.77;;;18.93;;
18780;SDS011;9519;51.890;8.970;2022-12-07T19:58:32;26.77;;;20.87;;
18780;SDS011;9519;51.890;8.970;2022-12-07T20:03:34;42.27;;;26.63;;
18780;SDS011;9519;51.890;8.970;2022-12-07T20:08:37;44.13;;;32.93;;
18780;SDS011;9519;51.890;8.970;2022-12-07T20:13:40;51.33;;;34.40;;
18780;SDS011;9519;51.890;8.970;2022-12-07T20:18:42;39.97;;;27.93;;
18780;SDS011;9519;51.890;8.970;2022-12-07T20:23:46;36.77;;;24.70;;
18780;SDS011;9519;51.890;8.970;2022-12-07T20:28:48;37.50;;;27.47;;
18780;SDS011;9519;51.890;8.970;2022-12-07T20:33:50;38.17;;;28.23;;
18780;SDS011;9519;51.890;8.970;2022-12-07T20:39:00;38.60;;;26.60;;
18780;SDS011;9519;51.890;8.970;2022-12-07T20:44:07;32.03;;;25.27;;
18780;SDS011;9519;51.890;8.970;2022-12-07T20:49:09;41.80;;;28.83;;
18780;SDS011;9519;51.890;8.970;2022-12-07T20:54:14;35.17;;;25.23;;
18780;SDS011;9519;51.890;8.970;2022-12-07T20:59:16;38.80;;;26.10;;
18780;SDS011;9519;51.890;8.970;2022-12-07T21:04:18;36.37;;;25.40;;
18780;SDS011;9519;51.890;8.970;2022-12-07T21:09:22;38.10;;;26.50;;
18780;SDS011;9519;51.890;8.970;2022-12-07T21:14:26;41.93;;;29.57;;
18780;SDS011;9519;51.890;8.970;2022-12-07T21:19:28;41.70;;;28.07;;
18780;SDS011;9519;51.890;8.970;2022-12-07T21:24:32;40.17;;;29.70;;
18780;SDS011;9519;51.890;8.970;2022-12-07T21:29:35;45.70;;;31.47;;
18780;SDS011;9519;51.890;8.970;2022-12-07T21:34:37;57.33;;;35.43;;
18780;SDS011;9519;51.890;8.970;2022-12-07T21:39:40;47.73;;;32.60;;
18780;SDS011;9519;51.890;8.970;2022-12-07T21:44:42;42.93;;;28.33;;
18780;SDS011;9519;51.890;8.970;2022-12-07T21:49:44;48.10;;;32.17;;
18780;SDS011;9519;51.890;8.970;2022-12-07T21:54:48;43.47;;;30.10;;
18780;SDS011;9519;51.890;8.970;2022-12-07T21:59:50;44.73;;;28.40;;
18780;SDS011;9519;51.890;8.970;2022-12-07T22:04:52;48.30;;;29.17;;
18780;SDS011;9519;51.890;8.970;2022-12-07T22:09:55;40.27;;;29.20;;
18780;SDS011;9519;51.890;8.970;2022-12-07T22:14:57;48.33;;;31.80;;
18780;SDS011;9519;51.890;8.970;2022-12-07T22:20:06;40.90;;;28.60;;
18780;SDS011;9519;51.890;8.970;2022-12-07T22:25:10;38.43;;;27.43;;
18780;SDS011;9519;51.890;8.970;2022-12-07T22:30:14;42.33;;;29.00;;
18780;SDS011;9519;51.890;8.970;2022-12-07T22:35:16;37.17;;;27.27;;
18780;SDS011;9519;51.890;8.970;2022-12-07T22:40:20;41.83;;;29.10;;
18780;SDS011;9519;51.890;8.970;2022-12-07T22:45:22;38.93;;;26.20;;
18780;SDS011;9519;51.890;8.970;2022-12-07T22:50:24;39.10;;;27.53;;
18780;SDS011;9519;51.890;8.970;2022-12-07T22:55:27;41.23;;;28.40;;
18780;SDS011;9519;51.890;8.970;2022-12-07T23:00:29;42.87;;;30.57;;
18780;SDS011;9519;51.890;8.970;2022-12-07T23:05:32;41.77;;;30.67;;
18780;SDS011;9519;51.890;8.970;2022-12-07T23:10:35;44.47;;;31.20;;
18780;SDS011;9519;51.890;8.970;2022-12-07T23:15:42;41.07;;;29.83;;
18780;SDS011;9519;51.890;8.970;2022-12-07T23:20:45;40.77;;;28.37;;
18780;SDS011;9519;51.890;8.970;2022-12-07T23:25:49;42.70;;;29.70;;
18780;SDS011;9519;51.890;8.970;2022-12-07T23:30:51;46.70;;;30.63;;
18780;SDS011;9519;51.890;8.970;2022-12-07T23:35:53;49.47;;;32.50;;
18780;SDS011;9519;51.890;8.970;2022-12-07T23:40:57;52.07;;;35.73;;
18780;SDS011;9519;51.890;8.970;2022-12-07T23:45:59;53.60;;;36.73;;
18780;SDS011;9519;51.890;8.970;2022-12-07T23:51:01;54.17;;;38.93;;
18780;SDS011;9519;51.890;8.970;2022-12-07T23:56:05;50.17;;;36.43;;
